sensor_id;sensor_type;location;lat;lon;timestamp;pressure;altitude;pressure_sealevel;temperature;humidity
81608;BME280;71022;48.122;11.576;2023-07-31T00:01:11;95752.19;;;19.07;56.28
81608;BME280;71022;48.122;11.576;2023-07-31T00:03:38;95762.91;;;19.12;55.91
81608;BME280;71022;48.122;11.576;2023-07-31T00:06:05;95755.44;;;18.88;57.26
81608;BME280;71022;48.122;11.576;2023-07-31T00:08:32;95753.88;;;18.73;57.70
81608;BME280;71022;48.122;11.576;2023-07-31T00:11:00;95746.34;;;18.70;57.47
81608;BME280;71022;48.122;11.576;2023-07-31T00:13:27;95752.34;;;18.65;57.98
81608;BME280;71022;48.122;11.576;2023-07-31T00:15:54;95752.31;;;18.72;57.78
81608;BME280;71022;48.122;11.576;2023-07-31T00:18:22;95755.88;;;18.76;57.35
81608;BME280;71022;48.122;11.576;2023-07-31T00:20:49;95754.66;;;18.84;56.58
81608;BME280;71022;48.122;11.576;2023-07-31T00:23:16;95752.31;;;18.75;57.08
81608;BME280;71022;48.122;11.576;2023-07-31T00:25:44;95749.94;;;18.70;57.44
81608;BME280;71022;48.122;11.576;2023-07-31T00:28:11;95749.91;;;18.81;56.93
81608;BME280;71022;48.122;11.576;2023-07-31T00:30:38;95752.25;;;18.90;56.59
81608;BME280;71022;48.122;11.576;2023-07-31T00:33:06;95743.91;;;18.86;57.05
81608;BME280;71022;48.122;11.576;2023-07-31T00:35:33;95753.06;;;18.90;57.23
81608;BME280;71022;48.122;11.576;2023-07-31T00:38:00;95753.81;;;18.94;56.74
81608;BME280;71022;48.122;11.576;2023-07-31T00:40:28;95743.91;;;18.93;56.64
81608;BME280;71022;48.122;11.576;2023-07-31T00:42:55;95744.38;;;18.70;56.83
81608;BME280;71022;48.122;11.576;2023-07-31T00:45:23;95736.44;;;18.69;57.35
81608;BME280;71022;48.122;11.576;2023-07-31T00:47:52;95733.66;;;18.72;57.09
81608;BME280;71022;48.122;11.576;2023-07-31T00:50:19;95735.63;;;18.72;57.35
81608;BME280;71022;48.122;11.576;2023-07-31T00:52:46;95732.03;;;18.71;57.69
81608;BME280;71022;48.122;11.576;2023-07-31T00:55:14;95731.63;;;18.73;57.04
81608;BME280;71022;48.122;11.576;2023-07-31T00:57:41;95736.44;;;18.72;57.17
81608;BME280;71022;48.122;11.576;2023-07-31T01:00:11;95732.44;;;18.70;57.23
81608;BME280;71022;48.122;11.576;2023-07-31T01:02:39;95731.66;;;18.66;57.32
81608;BME280;71022;48.122;11.576;2023-07-31T01:05:07;95726.88;;;18.73;57.43
81608;BME280;71022;48.122;11.576;2023-07-31T01:07:47;95729.25;;;18.78;57.39
81608;BME280;71022;48.122;11.576;2023-07-31T01:10:21;95733.59;;;18.83;56.60
81608;BME280;71022;48.122;11.576;2023-07-31T01:12:51;95730.00;;;18.90;56.34
81608;BME280;71022;48.122;11.576;2023-07-31T01:15:20;95718.44;;;18.91;56.35
81608;BME280;71022;48.122;11.576;2023-07-31T01:17:48;95720.47;;;18.87;56.33
81608;BME280;71022;48.122;11.576;2023-07-31T01:20:23;95710.97;;;18.67;57.53
81608;BME280;71022;48.122;11.576;2023-07-31T01:26:11;95713.38;;;18.65;57.55
81608;BME280;71022;48.122;11.576;2023-07-31T01:29:01;95711.78;;;18.71;58.06
81608;BME280;71022;48.122;11.576;2023-07-31T01:31:31;95708.56;;;18.76;56.96
81608;BME280;71022;48.122;11.576;2023-07-31T01:34:01;95704.59;;;18.73;57.01
81608;BME280;71022;48.122;11.576;2023-07-31T01:36:32;95699.81;;;18.81;56.76
81608;BME280;71022;48.122;11.576;2023-07-31T01:39:00;95710.19;;;18.70;57.48
81608;BME280;71022;48.122;11.576;2023-07-31T01:41:28;95701.03;;;18.73;57.40
81608;BME280;71022;48.122;11.576;2023-07-31T01:43:56;95699.03;;;18.77;57.94
81608;BME280;71022;48.122;11.576;2023-07-31T01:46:23;95696.63;;;18.83;56.94
81608;BME280;71022;48.122;11.576;2023-07-31T01:48:50;95690.31;;;18.75;57.48
81608;BME280;71022;48.122;11.576;2023-07-31T01:51:18;95695.09;;;18.67;57.81
81608;BME280;71022;48.122;11.576;2023-07-31T01:53:45;95697.47;;;18.72;57.75
81608;BME280;71022;48.122;11.576;2023-07-31T01:56:13;95701.00;;;18.80;57.66
81608;BME280;71022;48.122;11.576;2023-07-31T01:58:40;95695.41;;;18.87;57.75
81608;BME280;71022;48.122;11.576;2023-07-31T02:01:08;95698.16;;;18.94;57.33
81608;BME280;71022;48.122;11.576;2023-07-31T02:03:35;95701.38;;;18.89;57.75
81608;BME280;71022;48.122;11.576;2023-07-31T02:06:02;95700.13;;;19.01;57.09
81608;BME280;71022;48.122;11.576;2023-07-31T02:08:30;95691.84;;;18.83;57.94
81608;BME280;71022;48.122;11.576;2023-07-31T02:10:58;95693.81;;;18.93;57.80
81608;BME280;71022;48.122;11.576;2023-07-31T02:13:25;95690.97;;;18.97;57.80
81608;BME280;71022;48.122;11.576;2023-07-31T02:15:52;95685.38;;;19.04;57.63
81608;BME280;71022;48.122;11.576;2023-07-31T02:18:19;95685.81;;;19.02;58.18
81608;BME280;71022;48.122;11.576;2023-07-31T02:20:50;95682.22;;;19.05;57.98
81608;BME280;71022;48.122;11.576;2023-07-31T02:23:19;95675.03;;;19.11;57.65
81608;BME280;71022;48.122;11.576;2023-07-31T02:25:46;95676.22;;;19.07;58.36
81608;BME280;71022;48.122;11.576;2023-07-31T02:28:14;95673.44;;;19.10;57.77
81608;BME280;71022;48.122;11.576;2023-07-31T02:30:44;95670.28;;;19.01;58.32
81608;BME280;71022;48.122;11.576;2023-07-31T02:33:14;95671.88;;;19.02;58.57
81608;BME280;71022;48.122;11.576;2023-07-31T02:35:41;95670.25;;;19.08;58.59
81608;BME280;71022;48.122;11.576;2023-07-31T02:38:09;95664.72;;;19.01;58.56
81608;BME280;71022;48.122;11.576;2023-07-31T02:40:36;95661.97;;;18.91;58.65
81608;BME280;71022;48.122;11.576;2023-07-31T02:43:03;95657.56;;;19.00;58.42
81608;BME280;71022;48.122;11.576;2023-07-31T02:45:30;95663.56;;;18.99;58.40
81608;BME280;71022;48.122;11.576;2023-07-31T02:47:58;95665.56;;;18.91;58.90
81608;BME280;71022;48.122;11.576;2023-07-31T02:50:26;95655.22;;;18.95;58.48
81608;BME280;71022;48.122;11.576;2023-07-31T02:52:54;95649.72;;;18.81;59.25
81608;BME280;71022;48.122;11.576;2023-07-31T02:55:21;95653.75;;;18.69;59.74
81608;BME280;71022;48.122;11.576;2023-07-31T02:57:49;95642.22;;;18.67;59.48
81608;BME280;71022;48.122;11.576;2023-07-31T03:00:16;95641.00;;;18.75;59.29
81608;BME280;71022;48.122;11.576;2023-07-31T03:02:43;95648.16;;;18.73;59.74
81608;BME280;71022;48.122;11.576;2023-07-31T03:05:11;95642.66;;;18.59;59.91
81608;BME280;71022;48.122;11.576;2023-07-31T03:07:38;95653.03;;;18.48;60.44
81608;BME280;71022;48.122;11.576;2023-07-31T03:10:06;95636.75;;;18.50;60.18
81608;BME280;71022;48.122;11.576;2023-07-31T03:12:34;95637.91;;;18.56;59.95
81608;BME280;71022;48.122;11.576;2023-07-31T03:15:01;95649.03;;;18.56;60.25
81608;BME280;71022;48.122;11.576;2023-07-31T03:17:28;95638.69;;;18.60;59.54
81608;BME280;71022;48.122;11.576;2023-07-31T03:19:56;95637.91;;;18.52;60.27
81608;BME280;71022;48.122;11.576;2023-07-31T03:22:23;95641.91;;;18.41;61.26
81608;BME280;71022;48.122;11.576;2023-07-31T03:24:50;95643.09;;;18.47;60.32
81608;BME280;71022;48.122;11.576;2023-07-31T03:27:18;95636.78;;;18.36;60.92
81608;BME280;71022;48.122;11.576;2023-07-31T03:29:45;95642.75;;;18.23;61.17
81608;BME280;71022;48.122;11.576;2023-07-31T03:32:13;95634.06;;;18.18;61.83
81608;BME280;71022;48.122;11.576;2023-07-31T03:34:40;95648.25;;;18.52;60.74
81608;BME280;71022;48.122;11.576;2023-07-31T03:37:07;95653.78;;;18.59;61.10
81608;BME280;71022;48.122;11.576;2023-07-31T03:39:36;95650.22;;;18.55;61.32
81608;BME280;71022;48.122;11.576;2023-07-31T03:42:03;95649.88;;;18.42;62.08
81608;BME280;71022;48.122;11.576;2023-07-31T03:44:31;95650.66;;;18.43;62.13
81608;BME280;71022;48.122;11.576;2023-07-31T03:46:58;95655.41;;;18.56;61.45
81608;BME280;71022;48.122;11.576;2023-07-31T03:49:25;95654.63;;;18.42;61.82
81608;BME280;71022;48.122;11.576;2023-07-31T03:51:56;95655.00;;;18.40;62.15
81608;BME280;71022;48.122;11.576;2023-07-31T03:54:23;95650.31;;;18.30;62.39
81608;BME280;71022;48.122;11.576;2023-07-31T03:56:50;95652.34;;;18.12;63.25
81608;BME280;71022;48.122;11.576;2023-07-31T03:59:17;95650.78;;;18.00;63.79
81608;BME280;71022;48.122;11.576;2023-07-31T04:01:45;95659.88;;;18.18;62.94
81608;BME280;71022;48.122;11.576;2023-07-31T04:04:12;95649.88;;;18.32;62.37
81608;BME280;71022;48.122;11.576;2023-07-31T04:06:39;95652.28;;;18.33;62.59
81608;BME280;71022;48.122;11.576;2023-07-31T04:09:07;95644.41;;;18.07;63.59
81608;BME280;71022;48.122;11.576;2023-07-31T04:11:34;95646.41;;;17.99;63.63
81608;BME280;71022;48.122;11.576;2023-07-31T04:14:01;95649.97;;;17.89;64.20
81608;BME280;71022;48.122;11.576;2023-07-31T04:16:29;95646.00;;;17.90;63.89
81608;BME280;71022;48.122;11.576;2023-07-31T04:18:56;95640.41;;;18.04;63.56
81608;BME280;71022;48.122;11.576;2023-07-31T04:21:23;95639.66;;;18.00;63.72
81608;BME280;71022;48.122;11.576;2023-07-31T04:23:50;95648.38;;;18.09;63.28
81608;BME280;71022;48.122;11.576;2023-07-31T04:26:18;95647.16;;;18.10;63.57
81608;BME280;71022;48.122;11.576;2023-07-31T04:28:45;95641.59;;;18.24;63.21
81608;BME280;71022;48.122;11.576;2023-07-31T04:31:13;95643.13;;;18.33;62.99
81608;BME280;71022;48.122;11.576;2023-07-31T04:33:40;95642.81;;;18.09;63.79
81608;BME280;71022;48.122;11.576;2023-07-31T04:36:07;95645.56;;;18.16;63.60
81608;BME280;71022;48.122;11.576;2023-07-31T04:38:34;95646.72;;;18.22;63.29
81608;BME280;71022;48.122;11.576;2023-07-31T04:41:02;95633.19;;;18.32;62.87
81608;BME280;71022;48.122;11.576;2023-07-31T04:43:29;95636.84;;;18.14;63.99
81608;BME280;71022;48.122;11.576;2023-07-31T04:45:56;95629.31;;;18.04;64.07
81608;BME280;71022;48.122;11.576;2023-07-31T04:48:24;95638.06;;;18.06;64.50
81608;BME280;71022;48.122;11.576;2023-07-31T04:50:51;95630.84;;;18.19;63.26
81608;BME280;71022;48.122;11.576;2023-07-31T04:53:18;95640.34;;;18.33;63.39
81608;BME280;71022;48.122;11.576;2023-07-31T04:55:45;95634.00;;;18.36;63.38
81608;BME280;71022;48.122;11.576;2023-07-31T04:58:13;95631.63;;;18.31;63.42
81608;BME280;71022;48.122;11.576;2023-07-31T05:00:43;95626.09;;;18.23;63.81
81608;BME280;71022;48.122;11.576;2023-07-31T05:03:10;95625.34;;;18.09;64.13
81608;BME280;71022;48.122;11.576;2023-07-31T05:05:38;95630.50;;;18.03;64.36
81608;BME280;71022;48.122;11.576;2023-07-31T05:08:06;95627.34;;;17.80;65.14
81608;BME280;71022;48.122;11.576;2023-07-31T05:10:34;95628.56;;;17.72;65.92
81608;BME280;71022;48.122;11.576;2023-07-31T05:13:01;95630.94;;;17.77;65.56
81608;BME280;71022;48.122;11.576;2023-07-31T05:15:28;95633.72;;;17.81;65.50
81608;BME280;71022;48.122;11.576;2023-07-31T05:17:56;95626.19;;;17.88;65.42
81608;BME280;71022;48.122;11.576;2023-07-31T05:20:23;95634.91;;;17.90;65.70
81608;BME280;71022;48.122;11.576;2023-07-31T05:22:50;95642.00;;;18.12;64.93
81608;BME280;71022;48.122;11.576;2023-07-31T05:25:18;95641.97;;;18.27;64.52
81608;BME280;71022;48.122;11.576;2023-07-31T05:32:30;95634.69;;;18.64;63.05
81608;BME280;71022;48.122;11.576;2023-07-31T05:36:26;95626.72;;;18.70;63.04
81608;BME280;71022;48.122;11.576;2023-07-31T05:39:50;95623.09;;;18.80;62.10
81608;BME280;71022;48.122;11.576;2023-07-31T05:47:40;95629.75;;;18.97;61.34
81608;BME280;71022;48.122;11.576;2023-07-31T06:17:15;95628.13;;;19.65;58.44
81608;BME280;71022;48.122;11.576;2023-07-31T06:19:43;95619.81;;;19.58;58.10
81608;BME280;71022;48.122;11.576;2023-07-31T06:22:10;95627.66;;;19.70;57.33
81608;BME280;71022;48.122;11.576;2023-07-31T06:24:38;95629.88;;;19.89;57.23
81608;BME280;71022;48.122;11.576;2023-07-31T06:27:05;95631.59;;;19.76;56.14
81608;BME280;71022;48.122;11.576;2023-07-31T06:29:32;95637.56;;;19.74;56.42
81608;BME280;71022;48.122;11.576;2023-07-31T06:32:00;95626.63;;;19.94;56.79
81608;BME280;71022;48.122;11.576;2023-07-31T06:34:30;95634.63;;;19.92;56.66
81608;BME280;71022;48.122;11.576;2023-07-31T06:36:57;95642.38;;;19.70;57.01
81608;BME280;71022;48.122;11.576;2023-07-31T06:39:24;95639.53;;;19.77;57.19
81608;BME280;71022;48.122;11.576;2023-07-31T06:41:51;95633.19;;;19.77;56.06
81608;BME280;71022;48.122;11.576;2023-07-31T06:44:19;95642.03;;;19.65;56.61
81608;BME280;71022;48.122;11.576;2023-07-31T06:46:46;95633.25;;;19.66;56.62
81608;BME280;71022;48.122;11.576;2023-07-31T06:49:13;95639.63;;;19.67;56.50
81608;BME280;71022;48.122;11.576;2023-07-31T06:51:43;95635.56;;;19.75;56.88
81608;BME280;71022;48.122;11.576;2023-07-31T06:54:11;95634.72;;;19.81;56.85
81608;BME280;71022;48.122;11.576;2023-07-31T06:56:38;95625.38;;;19.99;55.73
81608;BME280;71022;48.122;11.576;2023-07-31T06:59:07;95624.00;;;20.17;54.77
81608;BME280;71022;48.122;11.576;2023-07-31T07:01:35;95607.28;;;20.17;54.96
81608;BME280;71022;48.122;11.576;2023-07-31T07:04:03;95608.94;;;20.11;54.31
81608;BME280;71022;48.122;11.576;2023-07-31T07:06:30;95607.34;;;20.10;54.20
81608;BME280;71022;48.122;11.576;2023-07-31T07:08:57;95613.91;;;19.93;55.08
81608;BME280;71022;48.122;11.576;2023-07-31T07:11:25;95614.09;;;19.72;56.08
81608;BME280;71022;48.122;11.576;2023-07-31T07:13:52;95611.59;;;19.84;56.67
81608;BME280;71022;48.122;11.576;2023-07-31T07:16:19;95604.50;;;19.80;56.52
81608;BME280;71022;48.122;11.576;2023-07-31T07:18:47;95607.50;;;19.96;56.34
81608;BME280;71022;48.122;11.576;2023-07-31T07:21:30;95603.13;;;20.36;53.84
81608;BME280;71022;48.122;11.576;2023-07-31T07:23:59;95610.16;;;20.48;54.38
81608;BME280;71022;48.122;11.576;2023-07-31T07:26:27;95621.00;;;20.72;53.93
81608;BME280;71022;48.122;11.576;2023-07-31T07:28:54;95612.75;;;20.92;52.69
81608;BME280;71022;48.122;11.576;2023-07-31T07:31:21;95615.75;;;21.08;52.48
81608;BME280;71022;48.122;11.576;2023-07-31T07:33:51;95613.34;;;21.07;51.63
81608;BME280;71022;48.122;11.576;2023-07-31T07:36:18;95607.75;;;21.07;51.41
81608;BME280;71022;48.122;11.576;2023-07-31T07:38:45;95610.22;;;21.01;50.95
81608;BME280;71022;48.122;11.576;2023-07-31T07:41:13;95604.00;;;21.20;50.75
81608;BME280;71022;48.122;11.576;2023-07-31T07:43:40;95610.72;;;21.26;50.94
81608;BME280;71022;48.122;11.576;2023-07-31T07:46:07;95599.66;;;21.66;48.69
81608;BME280;71022;48.122;11.576;2023-07-31T07:48:34;95597.00;;;21.82;47.95
81608;BME280;71022;48.122;11.576;2023-07-31T07:51:02;95586.78;;;21.48;47.79
81608;BME280;71022;48.122;11.576;2023-07-31T07:53:29;95593.97;;;21.73;49.13
81608;BME280;71022;48.122;11.576;2023-07-31T07:55:57;95591.22;;;21.46;49.30
81608;BME280;71022;48.122;11.576;2023-07-31T07:58:24;95588.81;;;21.21;49.86
81608;BME280;71022;48.122;11.576;2023-07-31T08:00:52;95584.22;;;21.34;48.62
81608;BME280;71022;48.122;11.576;2023-07-31T08:03:19;95580.25;;;21.59;48.15
81608;BME280;71022;48.122;11.576;2023-07-31T08:05:46;95575.84;;;21.58;49.28
81608;BME280;71022;48.122;11.576;2023-07-31T08:08:15;95575.91;;;21.54;48.17
81608;BME280;71022;48.122;11.576;2023-07-31T08:10:43;95574.59;;;21.62;48.21
81608;BME280;71022;48.122;11.576;2023-07-31T08:13:11;95572.56;;;22.09;47.89
81608;BME280;71022;48.122;11.576;2023-07-31T08:15:41;95573.44;;;22.26;45.73
81608;BME280;71022;48.122;11.576;2023-07-31T08:18:09;95580.69;;;22.82;45.84
81608;BME280;71022;48.122;11.576;2023-07-31T08:20:36;95589.88;;;22.83;45.15
81608;BME280;71022;48.122;11.576;2023-07-31T08:23:04;95584.91;;;22.31;46.05
81608;BME280;71022;48.122;11.576;2023-07-31T08:25:34;95586.06;;;22.14;47.01
81608;BME280;71022;48.122;11.576;2023-07-31T08:28:03;95581.44;;;21.81;46.67
81608;BME280;71022;48.122;11.576;2023-07-31T08:30:31;95582.19;;;21.62;46.79
81608;BME280;71022;48.122;11.576;2023-07-31T08:32:58;95576.09;;;21.43;47.96
81608;BME280;71022;48.122;11.576;2023-07-31T08:35:26;95583.25;;;21.44;48.30
81608;BME280;71022;48.122;11.576;2023-07-31T08:37:55;95584.72;;;21.52;48.31
81608;BME280;71022;48.122;11.576;2023-07-31T08:40:22;95578.75;;;21.50;49.01
81608;BME280;71022;48.122;11.576;2023-07-31T08:42:51;95572.56;;;21.39;47.43
81608;BME280;71022;48.122;11.576;2023-07-31T08:45:19;95567.13;;;21.32;48.18
81608;BME280;71022;48.122;11.576;2023-07-31T08:47:49;95572.31;;;21.30;48.01
81608;BME280;71022;48.122;11.576;2023-07-31T08:50:19;95568.66;;;21.07;48.47
81608;BME280;71022;48.122;11.576;2023-07-31T08:52:48;95574.78;;;20.98;49.33
81608;BME280;71022;48.122;11.576;2023-07-31T08:55:16;95575.50;;;20.75;49.32
81608;BME280;71022;48.122;11.576;2023-07-31T08:57:43;95561.13;;;20.77;49.84
81608;BME280;71022;48.122;11.576;2023-07-31T09:00:11;95565.22;;;20.69;50.00
81608;BME280;71022;48.122;11.576;2023-07-31T09:02:45;95561.31;;;20.63;50.15
81608;BME280;71022;48.122;11.576;2023-07-31T09:05:14;95569.09;;;20.48;50.54
81608;BME280;71022;48.122;11.576;2023-07-31T09:07:42;95577.31;;;20.59;51.19
81608;BME280;71022;48.122;11.576;2023-07-31T09:10:13;95567.69;;;20.93;51.66
81608;BME280;71022;48.122;11.576;2023-07-31T09:12:41;95565.56;;;21.01;49.89
81608;BME280;71022;48.122;11.576;2023-07-31T09:15:10;95575.81;;;21.11;49.36
81608;BME280;71022;48.122;11.576;2023-07-31T09:18:00;95566.16;;;21.16;47.99
81608;BME280;71022;48.122;11.576;2023-07-31T09:20:31;95561.47;;;21.09;47.83
81608;BME280;71022;48.122;11.576;2023-07-31T09:23:14;95557.13;;;21.78;48.66
81608;BME280;71022;48.122;11.576;2023-07-31T09:25:44;95550.41;;;22.38;46.05
81608;BME280;71022;48.122;11.576;2023-07-31T09:28:12;95552.34;;;22.60;47.01
81608;BME280;71022;48.122;11.576;2023-07-31T09:30:49;95555.84;;;22.84;44.30
81608;BME280;71022;48.122;11.576;2023-07-31T09:33:20;95559.66;;;22.54;44.14
81608;BME280;71022;48.122;11.576;2023-07-31T09:35:47;95554.34;;;22.21;45.30
81608;BME280;71022;48.122;11.576;2023-07-31T09:38:17;95561.25;;;22.36;45.95
81608;BME280;71022;48.122;11.576;2023-07-31T09:40:46;95550.66;;;22.67;46.54
81608;BME280;71022;48.122;11.576;2023-07-31T09:43:21;95554.72;;;22.98;44.76
81608;BME280;71022;48.122;11.576;2023-07-31T09:45:54;95550.41;;;23.29;44.48
81608;BME280;71022;48.122;11.576;2023-07-31T09:48:23;95548.72;;;23.15;43.10
81608;BME280;71022;48.122;11.576;2023-07-31T09:50:56;95543.03;;;23.19;44.20
81608;BME280;71022;48.122;11.576;2023-07-31T09:53:31;95541.25;;;23.09;44.79
81608;BME280;71022;48.122;11.576;2023-07-31T09:55:58;95540.56;;;23.21;44.85
81608;BME280;71022;48.122;11.576;2023-07-31T09:58:28;95538.66;;;23.02;43.56
81608;BME280;71022;48.122;11.576;2023-07-31T10:00:57;95527.28;;;23.25;45.74
81608;BME280;71022;48.122;11.576;2023-07-31T10:03:25;95518.78;;;22.96;44.63
81608;BME280;71022;48.122;11.576;2023-07-31T10:05:56;95525.66;;;22.76;43.85
81608;BME280;71022;48.122;11.576;2023-07-31T10:08:28;95513.50;;;22.63;45.07
81608;BME280;71022;48.122;11.576;2023-07-31T10:11:00;95516.44;;;22.55;44.46
81608;BME280;71022;48.122;11.576;2023-07-31T10:13:30;95510.63;;;22.46;45.89
81608;BME280;71022;48.122;11.576;2023-07-31T10:15:59;95497.91;;;22.97;46.66
81608;BME280;71022;48.122;11.576;2023-07-31T10:18:28;95490.31;;;23.14;43.34
81608;BME280;71022;48.122;11.576;2023-07-31T10:20:56;95484.63;;;23.01;44.22
81608;BME280;71022;48.122;11.576;2023-07-31T10:23:24;95481.75;;;23.05;43.17
81608;BME280;71022;48.122;11.576;2023-07-31T10:25:53;95480.88;;;23.08;43.40
81608;BME280;71022;48.122;11.576;2023-07-31T10:28:21;95483.66;;;23.24;42.82
81608;BME280;71022;48.122;11.576;2023-07-31T10:30:53;95471.47;;;23.63;41.78
81608;BME280;71022;48.122;11.576;2023-07-31T10:33:21;95476.66;;;23.32;42.00
81608;BME280;71022;48.122;11.576;2023-07-31T10:35:48;95475.69;;;23.23;42.23
81608;BME280;71022;48.122;11.576;2023-07-31T10:38:16;95482.47;;;23.41;42.38
81608;BME280;71022;48.122;11.576;2023-07-31T10:40:43;95471.25;;;23.41;42.62
81608;BME280;71022;48.122;11.576;2023-07-31T10:43:24;95474.56;;;23.04;41.65
81608;BME280;71022;48.122;11.576;2023-07-31T10:45:53;95478.56;;;23.03;42.25
81608;BME280;71022;48.122;11.576;2023-07-31T10:48:20;95473.69;;;23.07;42.31
81608;BME280;71022;48.122;11.576;2023-07-31T10:50:50;95472.63;;;23.01;42.69
81608;BME280;71022;48.122;11.576;2023-07-31T10:53:30;95469.31;;;22.90;42.11
81608;BME280;71022;48.122;11.576;2023-07-31T10:58:29;95463.22;;;22.39;41.36
81608;BME280;71022;48.122;11.576;2023-07-31T11:01:00;95463.91;;;22.43;42.03
81608;BME280;71022;48.122;11.576;2023-07-31T11:06:10;95462.97;;;22.86;41.00
81608;BME280;71022;48.122;11.576;2023-07-31T11:08:47;95452.06;;;23.07;40.68
81608;BME280;71022;48.122;11.576;2023-07-31T11:11:18;95450.91;;;22.89;41.98
81608;BME280;71022;48.122;11.576;2023-07-31T11:13:53;95445.38;;;22.69;42.09
81608;BME280;71022;48.122;11.576;2023-07-31T11:16:24;95445.50;;;22.82;42.56
81608;BME280;71022;48.122;11.576;2023-07-31T11:18:52;95440.06;;;22.75;42.26
81608;BME280;71022;48.122;11.576;2023-07-31T11:21:23;95439.03;;;22.85;42.64
81608;BME280;71022;48.122;11.576;2023-07-31T11:23:56;95437.25;;;23.23;42.94
81608;BME280;71022;48.122;11.576;2023-07-31T11:26:27;95434.19;;;23.79;43.12
81608;BME280;71022;48.122;11.576;2023-07-31T11:28:55;95436.56;;;23.80;40.21
81608;BME280;71022;48.122;11.576;2023-07-31T11:31:22;95421.13;;;23.72;40.57
81608;BME280;71022;48.122;11.576;2023-07-31T11:33:49;95422.13;;;23.65;39.82
81608;BME280;71022;48.122;11.576;2023-07-31T11:36:18;95423.41;;;23.77;40.14
81608;BME280;71022;48.122;11.576;2023-07-31T11:38:46;95412.06;;;23.68;40.05
81608;BME280;71022;48.122;11.576;2023-07-31T11:41:15;95416.47;;;23.82;40.16
81608;BME280;71022;48.122;11.576;2023-07-31T11:43:43;95400.91;;;23.93;39.91
81608;BME280;71022;48.122;11.576;2023-07-31T11:46:10;95411.06;;;23.75;39.75
81608;BME280;71022;48.122;11.576;2023-07-31T11:48:39;95405.53;;;23.42;40.83
81608;BME280;71022;48.122;11.576;2023-07-31T11:51:10;95390.69;;;23.58;41.17
81608;BME280;71022;48.122;11.576;2023-07-31T11:56:12;95394.44;;;23.67;41.23
81608;BME280;71022;48.122;11.576;2023-07-31T11:58:40;95380.13;;;23.33;41.25
81608;BME280;71022;48.122;11.576;2023-07-31T12:01:10;95379.94;;;23.56;41.62
81608;BME280;71022;48.122;11.576;2023-07-31T12:03:38;95379.34;;;23.90;41.01
81608;BME280;71022;48.122;11.576;2023-07-31T12:06:05;95371.03;;;24.15;39.04
81608;BME280;71022;48.122;11.576;2023-07-31T12:08:32;95364.06;;;24.20;39.00
81608;BME280;71022;48.122;11.576;2023-07-31T12:11:04;95361.94;;;24.37;38.61
81608;BME280;71022;48.122;11.576;2023-07-31T12:13:32;95350.81;;;24.33;37.95
81608;BME280;71022;48.122;11.576;2023-07-31T12:16:01;95346.88;;;24.18;39.50
81608;BME280;71022;48.122;11.576;2023-07-31T12:18:34;95345.66;;;24.44;38.63
81608;BME280;71022;48.122;11.576;2023-07-31T12:21:05;95334.19;;;24.26;36.59
81608;BME280;71022;48.122;11.576;2023-07-31T12:23:34;95339.59;;;24.33;36.80
81608;BME280;71022;48.122;11.576;2023-07-31T12:31:16;95331.91;;;24.97;36.94
81608;BME280;71022;48.122;11.576;2023-07-31T12:33:48;95311.66;;;25.02;36.42
81608;BME280;71022;48.122;11.576;2023-07-31T12:36:18;95323.91;;;25.08;36.22
81608;BME280;71022;48.122;11.576;2023-07-31T12:38:47;95314.16;;;25.00;35.97
81608;BME280;71022;48.122;11.576;2023-07-31T12:41:15;95320.38;;;24.69;36.43
81608;BME280;71022;48.122;11.576;2023-07-31T12:43:44;95310.13;;;24.75;36.26
81608;BME280;71022;48.122;11.576;2023-07-31T12:46:15;95306.06;;;24.76;37.07
81608;BME280;71022;48.122;11.576;2023-07-31T12:48:44;95310.06;;;24.41;37.34
81608;BME280;71022;48.122;11.576;2023-07-31T12:51:11;95301.41;;;24.23;38.25
81608;BME280;71022;48.122;11.576;2023-07-31T12:53:38;95299.81;;;23.97;39.62
81608;BME280;71022;48.122;11.576;2023-07-31T12:56:06;95295.63;;;23.76;38.67
81608;BME280;71022;48.122;11.576;2023-07-31T12:58:33;95296.69;;;23.95;39.14
81608;BME280;71022;48.122;11.576;2023-07-31T13:01:00;95299.19;;;24.18;38.17
81608;BME280;71022;48.122;11.576;2023-07-31T13:03:29;95298.50;;;24.39;39.05
81608;BME280;71022;48.122;11.576;2023-07-31T13:05:57;95298.03;;;24.53;37.78
81608;BME280;71022;48.122;11.576;2023-07-31T13:08:24;95302.31;;;24.45;37.91
81608;BME280;71022;48.122;11.576;2023-07-31T13:10:51;95299.25;;;24.65;37.40
81608;BME280;71022;48.122;11.576;2023-07-31T13:13:19;95296.00;;;24.66;37.90
81608;BME280;71022;48.122;11.576;2023-07-31T13:15:46;95294.03;;;24.76;38.68
81608;BME280;71022;48.122;11.576;2023-07-31T13:18:13;95294.84;;;24.76;36.95
81608;BME280;71022;48.122;11.576;2023-07-31T13:20:41;95300.94;;;24.62;37.24
81608;BME280;71022;48.122;11.576;2023-07-31T13:23:09;95288.28;;;24.33;36.75
81608;BME280;71022;48.122;11.576;2023-07-31T13:25:36;95280.97;;;24.35;37.58
81608;BME280;71022;48.122;11.576;2023-07-31T13:28:03;95280.66;;;24.33;36.96
81608;BME280;71022;48.122;11.576;2023-07-31T13:30:31;95281.88;;;24.32;37.50
81608;BME280;71022;48.122;11.576;2023-07-31T13:32:58;95280.75;;;24.17;36.65
81608;BME280;71022;48.122;11.576;2023-07-31T13:35:25;95273.19;;;24.01;38.04
81608;BME280;71022;48.122;11.576;2023-07-31T13:37:53;95276.69;;;24.05;37.59
81608;BME280;71022;48.122;11.576;2023-07-31T13:40:21;95274.66;;;24.06;38.23
81608;BME280;71022;48.122;11.576;2023-07-31T13:42:48;95265.38;;;24.34;39.02
81608;BME280;71022;48.122;11.576;2023-07-31T13:45:16;95258.47;;;24.60;38.52
81608;BME280;71022;48.122;11.576;2023-07-31T13:47:43;95255.31;;;24.84;36.84
81608;BME280;71022;48.122;11.576;2023-07-31T13:50:10;95245.38;;;24.92;36.76
81608;BME280;71022;48.122;11.576;2023-07-31T13:52:38;95243.63;;;24.72;36.71